Smit Clyde — CFG7577 — position and weather

sailwx.info

Track history (hours):
 
Tides and Currents Weather Stations Pressure Air Temp Water Temp Dewpoint Dewpoint Depression Visibility Wind Speed Wind Dir Waves Ship Positions

Smit Clyde

Last reported at 2015-Mar-06 08:33 UTC. Time now 2015-Mar-06 09:03 UTC.
Position N 49°18' W 123°01'.

Length 28 m; draft 6 m.

Type: Towing. MMSI: 316011473.

Date/timePositionNaut miles runAvg speedWind from/ knotsBaromVisibWave heightAir tempDewpointWater temp
2015-Mar-06 08:33N 49°18' W 123°01'0 0.0
2015-Mar-06 07:33N 49°18' W 123°01'0 0.0
2015-Mar-06 06:33N 49°18' W 123°01'0 0.0
2015-Mar-06 05:33N 49°18' W 123°01'0 0.0
2015-Mar-06 04:34N 49°18' W 123°01'0 0.0
2015-Mar-06 03:33N 49°18' W 123°01'0 0.0
2015-Mar-06 02:33N 49°18' W 123°01'0 0.0
2015-Mar-06 01:33N 49°18' W 123°01'0 0.0
2015-Mar-06 00:33N 49°18' W 123°01'0 0.0
2015-Mar-05 23:33N 49°18' W 123°01'0 0.0
2015-Mar-05 22:33N 49°18' W 123°01'0 0.0
2015-Mar-05 21:33N 49°18' W 123°01'0 0.0
2015-Mar-05 20:33N 49°18' W 123°01'0 0.0
2015-Mar-05 19:33N 49°18' W 123°01'0 0.0
2015-Mar-05 18:33N 49°18' W 123°01'0 0.0
2015-Mar-05 17:33N 49°18' W 123°01'0 0.0
2015-Mar-05 16:33N 49°18' W 123°01'0 0.0
2015-Mar-05 15:33N 49°18' W 123°01'0 0.0
2015-Mar-05 14:33N 49°18' W 123°01'0 0.0
2015-Mar-05 13:33N 49°18' W 123°01'0 0.0
2015-Mar-05 12:33N 49°18' W 123°01'0 0.0
2015-Mar-05 11:33N 49°18' W 123°01'0 0.0
2015-Mar-05 10:33N 49°18' W 123°01'0 0.0
2015-Mar-05 09:33N 49°18' W 123°01'0 0.0
2015-Mar-05 08:33N 49°18' W 123°01'0 0.0
2015-Mar-05 07:33N 49°18' W 123°01'0 0.0
2015-Mar-05 06:33N 49°18' W 123°01'0 0.0
2015-Mar-05 05:33N 49°18' W 123°01'0 0.0
2015-Mar-05 04:33N 49°18' W 123°01'0 0.0
2015-Mar-05 03:33N 49°18' W 123°01'0 0.0
2015-Mar-05 02:33N 49°18' W 123°01'0 0.0
2015-Mar-05 01:33N 49°18' W 123°01'0 0.0
2015-Mar-05 00:33N 49°18' W 123°01'0 0.0
2015-Mar-04 23:33N 49°18' W 123°01'0 0.0
2015-Mar-04 22:33N 49°18' W 123°01'0 0.0
2015-Mar-04 21:33N 49°18' W 123°01'0 0.0
2015-Mar-04 20:33N 49°18' W 123°01'0 0.0
2015-Mar-04 19:33N 49°18' W 123°01'0 0.0
2015-Mar-04 18:33N 49°18' W 123°01'0 0.0
2015-Mar-04 17:33N 49°18' W 123°01'0 0.0
2015-Mar-04 16:33N 49°18' W 123°01'0 0.0
2015-Mar-04 15:33N 49°18' W 123°01'0 0.5
2015-Mar-04 14:33N 49°18' W 123°02'1 1.3
2015-Mar-04 13:33N 49°17' W 123°04'0 0.0
2015-Mar-04 12:33N 49°17' W 123°04'0 0.0
2015-Mar-04 11:33N 49°17' W 123°04'0 0.0
2015-Mar-04 10:33N 49°17' W 123°04'0 0.0
2015-Mar-04 09:33N 49°17' W 123°04'0 0.0
2015-Mar-04 08:33N 49°17' W 123°04'0 0.0
2015-Mar-04 07:33N 49°17' W 123°04'0 0.0
2015-Mar-04 06:33N 49°17' W 123°04'0 0.0
2015-Mar-04 05:33N 49°17' W 123°04'0 0.0
2015-Mar-04 04:33N 49°17' W 123°04'0 0.0
2015-Mar-04 03:33N 49°17' W 123°04'0 0.0
2015-Mar-04 02:33N 49°17' W 123°04'0 0.0
2015-Mar-04 01:33N 49°17' W 123°04'0 0.0
2015-Mar-04 00:33N 49°17' W 123°04'0 0.0
2015-Mar-03 23:33N 49°17' W 123°04'0 0.0
2015-Mar-03 22:33N 49°17' W 123°04'1 1.5
2015-Mar-03 21:33N 49°18' W 123°06'10 9.6
2015-Mar-03 20:33N 49°19' W 123°20'1010.0
2015-Mar-03 19:33N 49°21' W 123°35'2410.1
2015-Mar-03 17:08N 49°30' W 124°10'610.0
2015-Mar-03 16:33N 49°33' W 124°18'11 9.6
2015-Mar-03 15:26N 49°39' W 124°32'9 9.6
2015-Mar-03 14:28N 49°45' W 124°43'9 9.8
2015-Mar-03 13:33N 49°50' W 124°54'6610.1
2015-Mar-03 07:04N 50°29' W 126°16'510.2
2015-Mar-03 06:31N 50°30' W 126°25'10 9.7
2015-Mar-03 05:30N 50°32' W 126°40'9 8.9
2015-Mar-03 04:32N 50°39' W 126°49'1010.1
2015-Mar-03 03:33N 50°44' W 127°02'10 9.7
2015-Mar-03 02:32N 50°49' W 127°15'9 9.3
2015-Mar-03 01:33N 50°55' W 127°26'8 8.2
2015-Mar-03 00:33N 51°00' W 127°36'9 9.0
2015-Mar-02 23:33N 51°07' W 127°46'10 9.2
2015-Mar-02 22:27N 51°16' W 127°54'1210.5
2015-Mar-02 21:20N 51°27' W 127°52'  
2015-Feb-25 11:15N 54°18' W 130°21'0 0.0
2015-Feb-25 10:33N 54°18' W 130°21'0 0.0
2015-Feb-25 09:33N 54°18' W 130°21'0 0.0
2015-Feb-25 08:33N 54°18' W 130°21'0 0.0
2015-Feb-25 07:34N 54°18' W 130°21'0 0.0
2015-Feb-25 06:33N 54°18' W 130°21'0 0.0
2015-Feb-25 05:33N 54°18' W 130°21'0 0.0
2015-Feb-25 04:33N 54°18' W 130°21'0 0.0
2015-Feb-25 03:33N 54°18' W 130°21'0 0.0
2015-Feb-25 02:33N 54°18' W 130°21'0 0.0
2015-Feb-25 01:33N 54°18' W 130°21'0 0.0
2015-Feb-25 00:33N 54°18' W 130°21'0 0.0
2015-Feb-24 23:33N 54°18' W 130°21'0 0.0
2015-Feb-24 22:33N 54°18' W 130°21'0 0.0
2015-Feb-24 21:33N 54°18' W 130°21'0 0.0
2015-Feb-24 20:33N 54°18' W 130°21'0 0.0
2015-Feb-24 19:33N 54°18' W 130°21'0 0.0
2015-Feb-24 18:33N 54°18' W 130°21'0 0.0
2015-Feb-24 17:33N 54°18' W 130°21'0 0.0
2015-Feb-24 16:33N 54°18' W 130°21'0 0.0
2015-Feb-24 15:33N 54°18' W 130°21'0 0.0
2015-Feb-24 14:33N 54°18' W 130°21'0 0.0
2015-Feb-24 13:34N 54°18' W 130°21'0 0.0
2015-Feb-24 12:33N 54°18' W 130°21'0 0.0
2015-Feb-24 11:33N 54°18' W 130°21'0 0.0
2015-Feb-24 10:33N 54°18' W 130°21'0 0.0
2015-Feb-24 09:33N 54°18' W 130°21'  
Track history (hours):
 
Tides and Currents Weather Stations Pressure Air Temp Water Temp Dewpoint Dewpoint Depression Visibility Wind Speed Wind Dir Waves Ship Positions

Smit Clyde

Last reported at 2015-Mar-06 08:33 UTC. Time now 2015-Mar-06 09:03 UTC.
Position N 49°18' W 123°01'.

Length 28 m; draft 6 m.

Type: Towing. MMSI: 316011473.

Date/timePositionNaut miles runAvg speedWind from/ knotsBaromVisibWave heightAir tempDewpointWater temp
2015-Mar-06 08:33N 49°18' W 123°01'0 0.0
2015-Mar-06 07:33N 49°18' W 123°01'0 0.0
2015-Mar-06 06:33N 49°18' W 123°01'0 0.0
2015-Mar-06 05:33N 49°18' W 123°01'0 0.0
2015-Mar-06 04:34N 49°18' W 123°01'0 0.0
2015-Mar-06 03:33N 49°18' W 123°01'0 0.0
2015-Mar-06 02:33N 49°18' W 123°01'0 0.0
2015-Mar-06 01:33N 49°18' W 123°01'0 0.0
2015-Mar-06 00:33N 49°18' W 123°01'0 0.0
2015-Mar-05 23:33N 49°18' W 123°01'0 0.0
2015-Mar-05 22:33N 49°18' W 123°01'0 0.0
2015-Mar-05 21:33N 49°18' W 123°01'0 0.0
2015-Mar-05 20:33N 49°18' W 123°01'0 0.0
2015-Mar-05 19:33N 49°18' W 123°01'0 0.0
2015-Mar-05 18:33N 49°18' W 123°01'0 0.0
2015-Mar-05 17:33N 49°18' W 123°01'0 0.0
2015-Mar-05 16:33N 49°18' W 123°01'0 0.0
2015-Mar-05 15:33N 49°18' W 123°01'0 0.0
2015-Mar-05 14:33N 49°18' W 123°01'0 0.0
2015-Mar-05 13:33N 49°18' W 123°01'0 0.0
2015-Mar-05 12:33N 49°18' W 123°01'0 0.0
2015-Mar-05 11:33N 49°18' W 123°01'0 0.0
2015-Mar-05 10:33N 49°18' W 123°01'0 0.0
2015-Mar-05 09:33N 49°18' W 123°01'0 0.0
2015-Mar-05 08:33N 49°18' W 123°01'0 0.0
2015-Mar-05 07:33N 49°18' W 123°01'0 0.0
2015-Mar-05 06:33N 49°18' W 123°01'0 0.0
2015-Mar-05 05:33N 49°18' W 123°01'0 0.0
2015-Mar-05 04:33N 49°18' W 123°01'0 0.0
2015-Mar-05 03:33N 49°18' W 123°01'0 0.0
2015-Mar-05 02:33N 49°18' W 123°01'0 0.0
2015-Mar-05 01:33N 49°18' W 123°01'0 0.0
2015-Mar-05 00:33N 49°18' W 123°01'0 0.0
2015-Mar-04 23:33N 49°18' W 123°01'0 0.0
2015-Mar-04 22:33N 49°18' W 123°01'0 0.0
2015-Mar-04 21:33N 49°18' W 123°01'0 0.0
2015-Mar-04 20:33N 49°18' W 123°01'0 0.0
2015-Mar-04 19:33N 49°18' W 123°01'0 0.0
2015-Mar-04 18:33N 49°18' W 123°01'0 0.0
2015-Mar-04 17:33N 49°18' W 123°01'0 0.0
2015-Mar-04 16:33N 49°18' W 123°01'0 0.0
2015-Mar-04 15:33N 49°18' W 123°01'0 0.5
2015-Mar-04 14:33N 49°18' W 123°02'1 1.3
2015-Mar-04 13:33N 49°17' W 123°04'0 0.0
2015-Mar-04 12:33N 49°17' W 123°04'0 0.0
2015-Mar-04 11:33N 49°17' W 123°04'0 0.0
2015-Mar-04 10:33N 49°17' W 123°04'0 0.0
2015-Mar-04 09:33N 49°17' W 123°04'0 0.0
2015-Mar-04 08:33N 49°17' W 123°04'0 0.0
2015-Mar-04 07:33N 49°17' W 123°04'0 0.0
2015-Mar-04 06:33N 49°17' W 123°04'0 0.0
2015-Mar-04 05:33N 49°17' W 123°04'0 0.0
2015-Mar-04 04:33N 49°17' W 123°04'0 0.0
2015-Mar-04 03:33N 49°17' W 123°04'0 0.0
2015-Mar-04 02:33N 49°17' W 123°04'0 0.0
2015-Mar-04 01:33N 49°17' W 123°04'0 0.0
2015-Mar-04 00:33N 49°17' W 123°04'0 0.0
2015-Mar-03 23:33N 49°17' W 123°04'0 0.0
2015-Mar-03 22:33N 49°17' W 123°04'1 1.5
2015-Mar-03 21:33N 49°18' W 123°06'10 9.6
2015-Mar-03 20:33N 49°19' W 123°20'1010.0
2015-Mar-03 19:33N 49°21' W 123°35'2410.1
2015-Mar-03 17:08N 49°30' W 124°10'610.0
2015-Mar-03 16:33N 49°33' W 124°18'11 9.6
2015-Mar-03 15:26N 49°39' W 124°32'9 9.6
2015-Mar-03 14:28N 49°45' W 124°43'9 9.8
2015-Mar-03 13:33N 49°50' W 124°54'6610.1
2015-Mar-03 07:04N 50°29' W 126°16'510.2
2015-Mar-03 06:31N 50°30' W 126°25'10 9.7
2015-Mar-03 05:30N 50°32' W 126°40'9 8.9
2015-Mar-03 04:32N 50°39' W 126°49'1010.1
2015-Mar-03 03:33N 50°44' W 127°02'10 9.7
2015-Mar-03 02:32N 50°49' W 127°15'9 9.3
2015-Mar-03 01:33N 50°55' W 127°26'8 8.2
2015-Mar-03 00:33N 51°00' W 127°36'9 9.0
2015-Mar-02 23:33N 51°07' W 127°46'10 9.2
2015-Mar-02 22:27N 51°16' W 127°54'1210.5
2015-Mar-02 21:20N 51°27' W 127°52'  
2015-Feb-25 11:15N 54°18' W 130°21'0 0.0
2015-Feb-25 10:33N 54°18' W 130°21'0 0.0
2015-Feb-25 09:33N 54°18' W 130°21'0 0.0
2015-Feb-25 08:33N 54°18' W 130°21'0 0.0
2015-Feb-25 07:34N 54°18' W 130°21'0 0.0
2015-Feb-25 06:33N 54°18' W 130°21'0 0.0
2015-Feb-25 05:33N 54°18' W 130°21'0 0.0
2015-Feb-25 04:33N 54°18' W 130°21'0 0.0
2015-Feb-25 03:33N 54°18' W 130°21'0 0.0
2015-Feb-25 02:33N 54°18' W 130°21'0 0.0
2015-Feb-25 01:33N 54°18' W 130°21'0 0.0
2015-Feb-25 00:33N 54°18' W 130°21'0 0.0
2015-Feb-24 23:33N 54°18' W 130°21'0 0.0
2015-Feb-24 22:33N 54°18' W 130°21'0 0.0
2015-Feb-24 21:33N 54°18' W 130°21'0 0.0
2015-Feb-24 20:33N 54°18' W 130°21'0 0.0
2015-Feb-24 19:33N 54°18' W 130°21'0 0.0
2015-Feb-24 18:33N 54°18' W 130°21'0 0.0
2015-Feb-24 17:33N 54°18' W 130°21'0 0.0
2015-Feb-24 16:33N 54°18' W 130°21'0 0.0
2015-Feb-24 15:33N 54°18' W 130°21'0 0.0
2015-Feb-24 14:33N 54°18' W 130°21'0 0.0
2015-Feb-24 13:34N 54°18' W 130°21'0 0.0
2015-Feb-24 12:33N 54°18' W 130°21'0 0.0
2015-Feb-24 11:33N 54°18' W 130°21'0 0.0
2015-Feb-24 10:33N 54°18' W 130°21'0 0.0
2015-Feb-24 09:33N 54°18' W 130°21'  

Dump ship's entire track history